Time;durP1;ratioP1;P1;durP2;ratioP2;P2;SDS_P1;SDS_P2;PMS_P1;PMS_P2;Temp;Humidity;BMP_temperature;BMP_pressure;BME280_temperature;BME280_humidity;BME280_pressure;Samples;Min_cycle;Max_cycle;Signal;HPM_P1;HPM_P2
2023/03/12 00:00:06;;;;;;;1.65;1.25;;;4.00;99.90;;;;;;4964806;28;20230;-69
2023/03/12 00:02:34;;;;;;;2.00;1.35;;;4.00;99.90;;;;;;4962228;28;20282;-70
2023/03/12 00:05:02;;;;;;;2.25;1.20;;;4.10;99.90;;;;;;4961503;28;20207;-69
2023/03/12 00:07:30;;;;;;;3.67;2.42;;;4.10;99.90;;;;;;4960834;28;20206;-69
2023/03/12 00:09:59;;;;;;;1.40;1.20;;;4.20;99.90;;;;;;4959467;28;20580;-69
2023/03/12 00:12:27;;;;;;;2.47;1.60;;;4.30;99.90;;;;;;4968727;28;20231;-69
2023/03/12 00:14:55;;;;;;;2.15;1.25;;;4.30;99.90;;;;;;4961423;28;20577;-70
2023/03/12 00:17:23;;;;;;;2.25;0.80;;;4.20;99.90;;;;;;4961499;28;20296;-70
2023/03/12 00:19:52;;;;;;;1.77;0.93;;;4.20;99.90;;;;;;4960078;28;20255;-69
2023/03/12 00:22:21;;;;;;;1.05;0.95;;;4.20;99.90;;;;;;4960787;28;20209;-70
2023/03/12 00:24:51;;;;;;;1.20;0.70;;;4.20;99.90;;;;;;4966270;28;20202;-69
2023/03/12 00:27:21;;;;;;;0.75;0.60;;;4.10;99.90;;;;;;4955968;28;20301;-69
2023/03/12 00:29:49;;;;;;;0.70;0.63;;;4.10;99.90;;;;;;4957107;28;20580;-69
2023/03/12 00:32:17;;;;;;;3.60;1.50;;;4.10;99.90;;;;;;4964293;28;20211;-69
2023/03/12 00:34:51;;;;;;;2.33;1.00;;;4.10;99.90;;;;;;4953787;28;20197;-70
2023/03/12 00:37:19;;;;;;;0.90;0.60;;;4.00;99.90;;;;;;4961108;28;20202;-70
2023/03/12 00:39:47;;;;;;;2.17;1.08;;;4.10;99.90;;;;;;4960661;28;20243;-69
2023/03/12 00:42:15;;;;;;;1.05;0.75;;;4.10;99.90;;;;;;4960362;28;20292;-69
2023/03/12 00:44:44;;;;;;;2.75;1.30;;;4.20;99.90;;;;;;4958385;28;20270;-70
2023/03/12 00:47:12;;;;;;;1.77;0.70;;;4.20;99.90;;;;;;4964180;28;20214;-69
2023/03/12 00:49:40;;;;;;;1.50;1.20;;;4.20;99.90;;;;;;4960451;28;20229;-69
2023/03/12 00:52:08;;;;;;;1.55;1.33;;;4.30;99.90;;;;;;4960683;28;20218;-68
2023/03/12 00:54:36;;;;;;;1.77;1.67;;;4.40;99.90;;;;;;4958032;28;20217;-69
2023/03/12 00:57:04;;;;;;;1.80;1.23;;;4.40;99.90;;;;;;4960717;28;20221;-68
2023/03/12 00:59:32;;;;;;;1.67;1.50;;;4.30;99.90;;;;;;4961691;28;20239;-69
2023/03/12 01:02:02;;;;;;;2.13;1.60;;;4.40;99.90;;;;;;4958479;28;20331;-68
2023/03/12 01:04:29;;;;;;;1.70;1.10;;;4.50;99.90;;;;;;4963783;28;20649;-70
2023/03/12 01:06:57;;;;;;;2.00;1.35;;;4.50;99.90;;;;;;4964059;28;20232;-70
2023/03/12 01:09:26;;;;;;;3.72;1.05;;;4.50;99.90;;;;;;4968426;28;20204;-70
2023/03/12 01:11:53;;;;;;;2.17;1.60;;;4.60;99.90;;;;;;4960512;28;20664;-70
2023/03/12 01:14:23;;;;;;;2.05;0.93;;;4.50;99.90;;;;;;4960646;28;20237;-70
2023/03/12 01:16:50;;;;;;;1.08;0.70;;;4.50;99.90;;;;;;4956804;28;20218;-71
2023/03/12 01:19:20;;;;;;;0.90;0.68;;;4.50;99.90;;;;;;4963955;28;20251;-72
2023/03/12 01:21:48;;;;;;;1.27;0.90;;;4.50;99.90;;;;;;4967523;28;20752;-72
2023/03/12 01:24:16;;;;;;;0.80;0.60;;;4.50;99.90;;;;;;4967664;28;20227;-71
2023/03/12 01:26:44;;;;;;;1.50;0.88;;;4.50;99.90;;;;;;4956745;28;20242;-71
2023/03/12 01:29:12;;;;;;;2.05;1.75;;;4.60;99.90;;;;;;4964262;28;20209;-70
2023/03/12 01:31:40;;;;;;;1.73;1.38;;;4.60;99.90;;;;;;4966208;28;20218;-71
2023/03/12 01:34:10;;;;;;;1.95;1.33;;;4.60;99.90;;;;;;4964012;28;20235;-71
2023/03/12 01:36:39;;;;;;;2.25;1.65;;;4.60;99.90;;;;;;4963980;28;20206;-71
2023/03/12 01:39:07;;;;;;;3.67;1.20;;;4.70;99.90;;;;;;4964118;28;20209;-71
2023/03/12 01:41:35;;;;;;;2.05;1.55;;;4.70;99.90;;;;;;4965279;28;20271;-69
2023/03/12 01:44:05;;;;;;;2.47;1.65;;;4.70;99.90;;;;;;4967211;28;20246;-70
2023/03/12 01:46:34;;;;;;;1.48;1.35;;;4.70;99.90;;;;;;4966033;28;20212;-70
2023/03/12 01:49:07;;;;;;;1.88;1.60;;;4.70;99.90;;;;;;4968822;28;20305;-69
2023/03/12 01:51:42;;;;;;;1.25;1.08;;;4.80;99.90;;;;;;4959624;28;20640;-69
2023/03/12 01:54:14;;;;;;;2.38;1.35;;;4.70;99.90;;;;;;4967096;28;20233;-70
2023/03/12 01:56:43;;;;;;;0.70;0.60;;;4.80;99.90;;;;;;4959056;28;20221;-70
2023/03/12 01:59:15;;;;;;;3.83;1.48;;;4.80;99.90;;;;;;4967039;28;20295;-71
2023/03/12 02:01:44;;;;;;;0.65;0.65;;;4.90;99.90;;;;;;4964281;28;20204;-71
2023/03/12 02:04:12;;;;;;;0.68;0.63;;;4.80;99.90;;;;;;4963745;28;20772;-70
2023/03/12 02:06:48;;;;;;;0.77;0.77;;;4.80;99.90;;;;;;4963596;28;20213;-70
2023/03/12 02:09:19;;;;;;;1.00;0.90;;;4.80;99.90;;;;;;4964526;28;20207;-70
2023/03/12 02:11:47;;;;;;;1.02;0.90;;;4.90;99.90;;;;;;4963626;28;20300;-69
2023/03/12 02:14:15;;;;;;;1.40;0.90;;;5.00;99.90;;;;;;4963676;28;20244;-69
2023/03/12 02:16:43;;;;;;;1.48;0.82;;;5.00;99.90;;;;;;4965876;28;20224;-69
2023/03/12 02:19:22;;;;;;;0.80;0.70;;;5.00;99.90;;;;;;4967003;28;20240;-69
2023/03/12 02:21:51;;;;;;;0.80;0.80;;;5.00;99.90;;;;;;4963271;28;20197;-70
2023/03/12 02:24:27;;;;;;;1.27;1.00;;;5.00;99.90;;;;;;4960231;28;20231;-69
2023/03/12 02:26:57;;;;;;;1.90;0.80;;;4.90;99.90;;;;;;4956318;28;20685;-70
2023/03/12 02:29:27;;;;;;;0.80;0.80;;;5.00;99.90;;;;;;4966651;28;20213;-70
2023/03/12 02:31:58;;;;;;;0.90;0.70;;;4.90;99.90;;;;;;4955633;28;20312;-71
2023/03/12 02:34:26;;;;;;;0.70;0.70;;;4.90;99.90;;;;;;4963342;28;20704;-70
2023/03/12 02:36:54;;;;;;;1.25;0.90;;;5.00;99.90;;;;;;4955583;28;20213;-70
2023/03/12 02:39:22;;;;;;;1.15;1.05;;;5.00;99.90;;;;;;4963223;28;20223;-70
2023/03/12 02:41:52;;;;;;;1.52;0.73;;;5.00;99.90;;;;;;4964383;28;20315;-70
2023/03/12 02:44:23;;;;;;;1.23;0.95;;;4.90;99.90;;;;;;4962080;28;20244;-70
2023/03/12 02:46:53;;;;;;;2.30;1.55;;;4.90;99.90;;;;;;4963168;28;20309;-70
2023/03/12 02:49:23;;;;;;;1.00;0.90;;;4.80;99.90;;;;;;4962938;28;20689;-69
2023/03/12 02:51:52;;;;;;;0.90;0.70;;;4.80;99.90;;;;;;4964230;28;20212;-70
2023/03/12 02:54:21;;;;;;;1.38;1.20;;;4.70;99.90;;;;;;4959273;28;20853;-70
2023/03/12 02:56:50;;;;;;;2.88;1.58;;;4.70;99.90;;;;;;4954756;29;20213;-70
2023/03/12 02:59:19;;;;;;;0.93;0.85;;;4.70;99.90;;;;;;4962825;28;20672;-70
2023/03/12 03:01:53;;;;;;;1.00;0.70;;;4.70;99.90;;;;;;4962192;28;20728;-70
2023/03/12 03:04:21;;;;;;;1.13;0.52;;;4.70;99.90;;;;;;4961446;28;20224;-70
2023/03/12 03:06:49;;;;;;;1.10;0.90;;;4.60;99.90;;;;;;4963231;28;20221;-71
2023/03/12 03:09:18;;;;;;;0.60;0.50;;;4.60;99.90;;;;;;4957771;28;20663;-70
2023/03/12 03:11:46;;;;;;;0.90;0.77;;;4.60;99.90;;;;;;4963140;28;20716;-68
2023/03/12 03:14:14;;;;;;;0.60;0.50;;;4.60;99.90;;;;;;4962542;28;20239;-70
2023/03/12 03:16:41;;;;;;;0.80;0.60;;;4.60;99.90;;;;;;4962204;28;20211;-70
2023/03/12 03:19:11;;;;;;;1.17;1.08;;;4.60;99.90;;;;;;4962531;28;20566;-70
2023/03/12 03:21:39;;;;;;;0.80;0.60;;;4.60;99.90;;;;;;4962959;28;20224;-70
2023/03/12 03:24:07;;;;;;;0.70;0.70;;;4.60;99.90;;;;;;4960635;28;20264;-70
2023/03/12 03:26:35;;;;;;;0.88;0.60;;;4.60;99.90;;;;;;4954217;28;20720;-71
2023/03/12 03:29:03;;;;;;;0.70;0.70;;;4.60;99.90;;;;;;4962198;28;20656;-70
2023/03/12 03:31:31;;;;;;;0.98;0.63;;;4.60;99.90;;;;;;4961845;28;20245;-69
2023/03/12 03:33:59;;;;;;;1.00;0.80;;;4.70;99.90;;;;;;4955554;28;20232;-70
2023/03/12 03:36:29;;;;;;;0.80;0.73;;;4.60;99.90;;;;;;4962237;28;20636;-70
2023/03/12 03:38:57;;;;;;;0.85;0.63;;;4.50;99.90;;;;;;4954004;28;20641;-70
2023/03/12 03:41:25;;;;;;;0.90;0.80;;;4.50;99.90;;;;;;4961646;28;20237;-70
2023/03/12 03:43:56;;;;;;;1.08;0.70;;;4.40;99.90;;;;;;4965175;28;20243;-70
2023/03/12 03:46:25;;;;;;;1.20;0.95;;;4.20;99.90;;;;;;4965435;28;20234;-70
2023/03/12 03:48:53;;;;;;;1.08;0.82;;;4.30;99.90;;;;;;4962411;28;20618;-70
2023/03/12 03:51:21;;;;;;;0.85;0.77;;;4.20;99.90;;;;;;4954926;28;20294;-70
2023/03/12 03:53:50;;;;;;;1.92;0.90;;;4.20;99.90;;;;;;4961508;28;20237;-70
2023/03/12 03:56:18;;;;;;;0.95;0.70;;;4.30;99.90;;;;;;4953453;28;20820;-71
2023/03/12 03:58:46;;;;;;;2.35;1.08;;;4.30;99.90;;;;;;4961634;28;20293;-70
2023/03/12 04:01:14;;;;;;;1.90;1.00;;;4.40;99.90;;;;;;4961517;28;20604;-71
2023/03/12 04:03:42;;;;;;;0.90;0.90;;;4.40;99.90;;;;;;4962557;28;20231;-71
2023/03/12 04:06:11;;;;;;;1.10;0.95;;;4.50;99.90;;;;;;4965109;28;20694;-71
2023/03/12 04:08:39;;;;;;;0.80;0.70;;;4.60;99.90;;;;;;4964714;28;20258;-70
2023/03/12 04:11:10;;;;;;;0.95;0.95;;;4.70;99.90;;;;;;4964673;28;20226;-70
2023/03/12 04:13:38;;;;;;;0.75;0.75;;;4.70;99.90;;;;;;4963824;28;20329;-70
2023/03/12 04:16:07;;;;;;;1.40;0.85;;;4.80;99.90;;;;;;4961548;28;20213;-69
2023/03/12 04:18:35;;;;;;;1.17;1.08;;;4.90;99.90;;;;;;4961503;28;20225;-70
2023/03/12 04:21:05;;;;;;;1.05;0.95;;;4.90;99.90;;;;;;4964518;28;20590;-70
2023/03/12 04:23:33;;;;;;;1.33;0.80;;;4.90;99.90;;;;;;4960369;28;20239;-71
2023/03/12 04:26:01;;;;;;;1.95;1.33;;;5.00;99.90;;;;;;4953155;28;20218;-71
2023/03/12 04:28:31;;;;;;;1.98;0.80;;;5.00;99.90;;;;;;4960881;28;20241;-71
2023/03/12 04:31:01;;;;;;;0.70;0.60;;;5.00;99.90;;;;;;4956545;28;20577;-70
2023/03/12 04:33:32;;;;;;;1.00;0.82;;;4.90;99.90;;;;;;4964478;28;20270;-70
2023/03/12 04:36:00;;;;;;;1.10;1.00;;;4.80;99.90;;;;;;4953552;28;20728;-71
2023/03/12 04:38:28;;;;;;;1.17;0.80;;;4.80;99.90;;;;;;4961219;28;20213;-70
2023/03/12 04:41:00;;;;;;;2.88;1.30;;;4.70;99.90;;;;;;4961522;28;20232;-70
2023/03/12 04:43:29;;;;;;;1.10;1.00;;;4.70;99.90;;;;;;4959701;28;20258;-70
2023/03/12 04:45:59;;;;;;;1.75;0.90;;;4.60;99.90;;;;;;4961097;28;20282;-68
2023/03/12 04:48:28;;;;;;;1.65;0.90;;;4.50;99.90;;;;;;4961146;28;20211;-70
2023/03/12 04:50:56;;;;;;;1.15;0.90;;;4.50;99.90;;;;;;4962703;28;20207;-71
2023/03/12 04:53:25;;;;;;;1.77;1.10;;;4.60;99.90;;;;;;4960470;28;20236;-71
2023/03/12 04:55:53;;;;;;;1.05;0.95;;;4.60;99.90;;;;;;4960382;28;20703;-69
2023/03/12 04:58:21;;;;;;;0.90;0.85;;;4.30;99.90;;;;;;4960350;28;20210;-69
2023/03/12 05:00:50;;;;;;;0.98;0.70;;;4.20;99.90;;;;;;4960284;28;20226;-71
2023/03/12 05:03:19;;;;;;;1.00;0.90;;;4.20;99.90;;;;;;4958069;28;20218;-72
2023/03/12 05:05:47;;;;;;;2.30;1.00;;;4.30;99.90;;;;;;4962519;28;20213;-72
2023/03/12 05:08:15;;;;;;;3.17;1.02;;;3.90;99.90;;;;;;4960976;28;20210;-69
2023/03/12 05:10:44;;;;;;;0.80;0.63;;;3.90;99.90;;;;;;4960303;28;20269;-70
2023/03/12 05:13:16;;;;;;;0.68;0.60;;;3.90;99.90;;;;;;4957373;28;20219;-69
2023/03/12 05:15:44;;;;;;;0.88;0.60;;;3.90;99.90;;;;;;4955599;28;20223;-69
2023/03/12 05:18:11;;;;;;;1.00;0.90;;;3.90;99.90;;;;;;4964155;28;20210;-71
2023/03/12 05:20:41;;;;;;;1.52;0.95;;;4.00;99.90;;;;;;4964269;28;20285;-72
2023/03/12 05:23:09;;;;;;;0.85;0.52;;;4.10;99.90;;;;;;4963175;28;20309;-69
2023/03/12 05:25:39;;;;;;;0.75;0.70;;;4.10;99.90;;;;;;4951657;28;20287;-70
2023/03/12 05:28:07;;;;;;;1.90;0.70;;;4.00;99.90;;;;;;4955121;28;20576;-70
2023/03/12 05:30:35;;;;;;;0.90;0.60;;;4.10;99.90;;;;;;4955385;28;20206;-69
2023/03/12 05:33:03;;;;;;;0.80;0.60;;;4.20;99.90;;;;;;4951902;28;20293;-70
2023/03/12 05:35:31;;;;;;;1.50;0.80;;;4.40;99.90;;;;;;4952559;28;20330;-70
2023/03/12 05:38:01;;;;;;;0.70;0.60;;;4.40;99.90;;;;;;4953940;28;20213;-71
2023/03/12 05:40:29;;;;;;;1.00;0.75;;;4.50;99.90;;;;;;4953817;28;20282;-69
2023/03/12 05:42:57;;;;;;;1.05;0.90;;;4.60;99.90;;;;;;4953641;28;20252;-69
2023/03/12 05:45:24;;;;;;;1.10;0.80;;;4.50;99.90;;;;;;4951419;28;20289;-69
2023/03/12 05:47:52;;;;;;;1.20;1.10;;;4.50;99.90;;;;;;4957230;28;20211;-70
2023/03/12 05:50:20;;;;;;;1.40;0.70;;;4.50;99.90;;;;;;4957502;28;20208;-71
2023/03/12 05:52:48;;;;;;;1.98;0.70;;;4.50;99.90;;;;;;4955271;28;20229;-72
2023/03/12 05:55:18;;;;;;;1.38;1.00;;;4.50;99.90;;;;;;4954916;28;20214;-70
2023/03/12 05:57:46;;;;;;;1.30;0.90;;;4.50;99.90;;;;;;4955603;28;20697;-71
2023/03/12 06:00:14;;;;;;;1.10;1.00;;;4.50;99.90;;;;;;4952144;28;20297;-70
2023/03/12 06:02:44;;;;;;;1.60;1.20;;;4.50;99.90;;;;;;4962107;28;20228;-71
2023/03/12 06:05:12;;;;;;;2.63;0.90;;;4.60;99.90;;;;;;4963844;28;20290;-71
2023/03/12 06:07:40;;;;;;;1.90;1.30;;;4.60;99.90;;;;;;4956008;28;20283;-70
2023/03/12 06:10:09;;;;;;;1.20;0.88;;;4.70;99.90;;;;;;4963713;28;20292;-71
2023/03/12 06:12:38;;;;;;;1.10;1.02;;;4.70;99.90;;;;;;4963335;28;20230;-71
2023/03/12 06:15:07;;;;;;;1.20;1.10;;;4.80;99.90;;;;;;4963785;28;20209;-71
2023/03/12 06:17:35;;;;;;;0.77;0.77;;;4.60;99.90;;;;;;4963820;28;20220;-69
2023/03/12 06:20:03;;;;;;;1.27;1.17;;;4.50;99.90;;;;;;4966540;28;20588;-70
2023/03/12 06:22:31;;;;;;;0.80;0.80;;;4.20;99.90;;;;;;4966599;28;20604;-68
2023/03/12 06:24:59;;;;;;;1.35;1.25;;;4.30;99.90;;;;;;4955958;28;20205;-70
2023/03/12 06:27:27;;;;;;;1.10;1.00;;;4.30;99.90;;;;;;4955655;28;20219;-71
2023/03/12 06:29:56;;;;;;;1.77;1.67;;;4.30;99.90;;;;;;4964025;28;20217;-72
2023/03/12 06:32:24;;;;;;;1.30;1.20;;;4.40;99.90;;;;;;4966194;28;20711;-71
2023/03/12 06:34:52;;;;;;;1.20;1.10;;;4.40;99.90;;;;;;4964942;28;20625;-73
2023/03/12 06:37:20;;;;;;;1.15;1.05;;;4.60;99.90;;;;;;4963335;28;20209;-71
2023/03/12 06:39:48;;;;;;;1.60;1.40;;;4.50;99.90;;;;;;4963109;28;20228;-72
2023/03/12 06:42:17;;;;;;;1.92;1.58;;;4.30;99.90;;;;;;4959572;28;20402;-70
2023/03/12 06:44:45;;;;;;;1.42;1.23;;;4.10;99.90;;;;;;4965676;28;20233;-70
2023/03/12 06:47:14;;;;;;;1.27;1.17;;;4.30;99.90;;;;;;4963069;28;20641;-71
2023/03/12 06:49:44;;;;;;;1.90;1.50;;;4.50;99.90;;;;;;4951960;29;20598;-72
2023/03/12 06:52:12;;;;;;;1.92;1.83;;;4.70;99.90;;;;;;4957990;28;20217;-71
2023/03/12 06:54:40;;;;;;;1.33;1.15;;;4.60;99.90;;;;;;4955832;28;20205;-72
2023/03/12 06:57:08;;;;;;;1.40;1.30;;;4.60;99.90;;;;;;4953004;29;20218;-72
2023/03/12 06:59:36;;;;;;;1.30;0.98;;;4.50;99.90;;;;;;4955139;28;20286;-72
2023/03/12 07:02:04;;;;;;;1.80;1.55;;;4.10;99.90;;;;;;4962361;28;20214;-72
2023/03/12 07:04:33;;;;;;;2.13;1.00;;;4.10;99.90;;;;;;4951974;28;20225;-70
2023/03/12 07:07:01;;;;;;;2.45;2.25;;;4.20;99.90;;;;;;4954328;28;20297;-71
2023/03/12 07:09:29;;;;;;;2.27;1.70;;;4.00;99.90;;;;;;4953762;28;20831;-67
2023/03/12 07:11:57;;;;;;;1.23;1.13;;;4.00;99.90;;;;;;4946937;28;20649;-67
2023/03/12 07:14:25;;;;;;;1.27;1.17;;;5.80;99.90;;;;;;4953008;28;20312;-66
2023/03/12 07:16:53;;;;;;;1.35;1.25;;;6.40;99.90;;;;;;4953545;28;20195;-67
2023/03/12 07:19:21;;;;;;;1.13;1.02;;;6.10;99.90;;;;;;4950965;28;20208;-66
2023/03/12 07:21:50;;;;;;;1.58;1.00;;;6.90;99.90;;;;;;4961293;28;20225;-67
2023/03/12 07:24:18;;;;;;;1.23;1.13;;;7.30;99.90;;;;;;4953832;28;20233;-68
2023/03/12 07:26:45;;;;;;;1.02;0.90;;;7.40;99.90;;;;;;4953622;28;20213;-69
2023/03/12 07:29:13;;;;;;;1.55;1.45;;;5.70;99.90;;;;;;4953646;28;20208;-68
2023/03/12 07:31:41;;;;;;;1.48;1.38;;;4.70;99.90;;;;;;4953473;28;20229;-68
2023/03/12 07:34:09;;;;;;;1.05;0.95;;;3.80;99.90;;;;;;4956654;28;20276;-67
2023/03/12 07:36:37;;;;;;;3.22;1.67;;;3.50;99.90;;;;;;4964858;28;20203;-67
2023/03/12 07:39:07;;;;;;;1.30;1.20;;;3.10;99.90;;;;;;4961318;28;20217;-67
2023/03/12 07:41:37;;;;;;;2.17;1.70;;;2.80;99.90;;;;;;4960432;28;20206;-67
2023/03/12 07:44:05;;;;;;;1.65;1.30;;;2.50;99.90;;;;;;4963588;28;20272;-67
2023/03/12 07:46:33;;;;;;;2.70;1.70;;;2.40;99.90;;;;;;4964799;28;20220;-67
2023/03/12 07:49:01;;;;;;;2.13;1.95;;;2.30;99.90;;;;;;4954283;28;21026;-68
2023/03/12 07:51:29;;;;;;;1.00;0.90;;;2.10;99.90;;;;;;4961574;28;20220;-67
2023/03/12 07:53:57;;;;;;;2.47;1.80;;;2.10;99.90;;;;;;4960712;28;20313;-68
2023/03/12 07:56:26;;;;;;;2.10;1.85;;;2.00;99.90;;;;;;4961413;28;20289;-68
2023/03/12 07:58:55;;;;;;;3.83;1.80;;;1.90;99.90;;;;;;4967842;28;20219;-67
2023/03/12 08:01:24;;;;;;;2.08;1.98;;;1.70;99.90;;;;;;4961194;28;20252;-67
2023/03/12 08:03:52;;;;;;;2.47;2.25;;;1.70;99.90;;;;;;4960535;28;20234;-67
2023/03/12 08:06:20;;;;;;;2.10;1.90;;;1.70;99.90;;;;;;4952966;28;20211;-68
2023/03/12 08:08:48;;;;;;;1.85;1.55;;;1.70;99.90;;;;;;4960793;28;20245;-68
2023/03/12 08:11:16;;;;;;;2.67;2.35;;;1.80;99.90;;;;;;4961149;28;20626;-68
2023/03/12 08:13:46;;;;;;;2.78;2.53;;;1.80;99.90;;;;;;4960261;28;20298;-68
2023/03/12 08:16:14;;;;;;;2.60;2.25;;;1.80;99.90;;;;;;4953421;28;20739;-67
2023/03/12 08:18:43;;;;;;;3.33;1.70;;;1.70;99.90;;;;;;4961011;28;20207;-68
2023/03/12 08:21:13;;;;;;;3.20;2.90;;;1.80;99.90;;;;;;4963867;28;20214;-68
2023/03/12 08:23:43;;;;;;;4.70;1.95;;;1.60;99.90;;;;;;4962559;28;20228;-67
2023/03/12 08:26:11;;;;;;;2.78;2.58;;;1.60;99.90;;;;;;4960815;28;20550;-69
2023/03/12 08:28:39;;;;;;;3.35;3.08;;;1.60;99.90;;;;;;4960980;28;20678;-68
2023/03/12 08:31:08;;;;;;;2.22;2.00;;;1.70;99.90;;;;;;4963259;28;20219;-67
2023/03/12 08:33:40;;;;;;;3.10;2.90;;;1.70;99.90;;;;;;4960085;28;20221;-67
2023/03/12 08:36:08;;;;;;;2.13;1.80;;;1.80;99.90;;;;;;4967405;28;20216;-68
2023/03/12 08:38:36;;;;;;;2.30;2.10;;;1.90;99.90;;;;;;4961360;28;20770;-68
2023/03/12 08:41:04;;;;;;;3.05;2.75;;;1.90;99.90;;;;;;4954551;28;20212;-67
2023/03/12 08:43:32;;;;;;;3.45;2.25;;;2.00;99.90;;;;;;4963229;28;20243;-68
2023/03/12 08:46:01;;;;;;;2.50;2.28;;;1.90;99.90;;;;;;4962071;28;20311;-68
2023/03/12 08:48:32;;;;;;;3.15;2.80;;;1.90;99.90;;;;;;4960567;28;20629;-68
2023/03/12 08:51:03;;;;;;;3.47;3.17;;;1.80;99.90;;;;;;4961931;28;20215;-68
2023/03/12 08:53:32;;;;;;;3.40;3.10;;;1.70;99.90;;;;;;4963191;28;20262;-68
2023/03/12 08:56:00;;;;;;;4.50;2.63;;;1.70;99.90;;;;;;4960549;28;20294;-66
2023/03/12 08:58:28;;;;;;;4.15;3.10;;;1.50;99.90;;;;;;4963370;28;20285;-68
2023/03/12 09:00:57;;;;;;;4.07;2.85;;;1.50;99.90;;;;;;4962478;28;20288;-68
2023/03/12 09:03:25;;;;;;;3.90;3.55;;;1.50;99.90;;;;;;4953286;28;20223;-68
2023/03/12 09:06:05;;;;;;;5.07;3.15;;;1.50;99.90;;;;;;4952565;28;20204;-67
2023/03/12 09:08:33;;;;;;;4.30;3.28;;;1.60;99.90;;;;;;4963755;28;20206;-67
2023/03/12 09:11:01;;;;;;;3.80;3.33;;;1.50;99.90;;;;;;4961740;28;20288;-68
2023/03/12 09:13:29;;;;;;;3.22;2.90;;;1.50;99.90;;;;;;4952668;28;20219;-69
2023/03/12 09:16:17;;;;;;;4.82;4.18;;;1.60;99.90;;;;;;4956415;28;20202;-68
2023/03/12 09:18:45;;;;;;;6.90;4.90;;;1.70;99.90;;;;;;4963596;28;20205;-68
2023/03/12 09:21:14;;;;;;;4.70;3.17;;;1.70;99.90;;;;;;4960232;28;20302;-68
2023/03/12 09:23:42;;;;;;;5.07;3.90;;;1.80;99.90;;;;;;4959657;28;20227;-68
2023/03/12 09:26:10;;;;;;;4.40;3.75;;;1.90;99.90;;;;;;4962737;28;20212;-67
2023/03/12 09:28:38;;;;;;;4.03;3.45;;;2.00;99.90;;;;;;4963312;28;20404;-69
2023/03/12 09:31:06;;;;;;;4.00;3.60;;;1.90;99.90;;;;;;4957609;28;20588;-69
2023/03/12 09:33:34;;;;;;;3.88;3.47;;;2.10;99.90;;;;;;4953524;28;20254;-68
2023/03/12 09:36:02;;;;;;;4.15;3.75;;;2.20;99.90;;;;;;4952688;28;20774;-67
2023/03/12 09:38:34;;;;;;;5.63;3.35;;;2.20;99.90;;;;;;4954297;28;20925;-67
2023/03/12 09:41:04;;;;;;;4.38;3.97;;;2.20;99.90;;;;;;4965279;28;20259;-68
2023/03/12 09:43:37;;;;;;;6.03;3.55;;;2.20;99.90;;;;;;4966464;28;20262;-68
2023/03/12 09:46:11;;;;;;;4.90;4.40;;;2.30;99.90;;;;;;5070474;23;20247;-68
2023/03/12 09:48:40;;;;;;;8.00;5.63;;;2.30;99.90;;;;;;4963164;28;20227;-68
2023/03/12 09:51:14;;;;;;;4.20;3.85;;;2.30;99.90;;;;;;4965719;28;20243;-67
2023/03/12 09:53:47;;;;;;;5.22;4.05;;;2.20;99.90;;;;;;4967041;28;20665;-67
2023/03/12 09:56:17;;;;;;;5.18;4.28;;;2.20;99.90;;;;;;4938042;28;20239;-70
2023/03/12 09:58:47;;;;;;;4.97;4.47;;;2.20;99.90;;;;;;4936144;29;20212;-67
2023/03/12 10:01:33;;;;;;;4.43;3.78;;;2.30;99.90;;;;;;4936461;29;20210;-66
2023/03/12 10:04:17;;;;;;;5.13;4.15;;;2.30;99.90;;;;;;4938212;29;20316;-67
2023/03/12 10:06:52;;;;;;;5.32;4.13;;;2.40;99.90;;;;;;4936428;29;20236;-67
2023/03/12 10:09:35;;;;;;;4.53;4.18;;;2.50;99.90;;;;;;4935886;29;20212;-68
2023/03/12 10:12:13;;;;;;;4.15;3.75;;;2.50;99.90;;;;;;4935874;29;20280;-65
2023/03/12 10:14:53;;;;;;;4.03;3.63;;;2.60;99.90;;;;;;4936217;29;20646;-68
2023/03/12 10:17:37;;;;;;;7.07;5.63;;;2.70;99.90;;;;;;4936230;29;20205;-68
2023/03/12 10:20:40;;;;;;;3.85;3.45;;;2.60;99.90;;;;;;4935629;29;20205;-67
2023/03/12 10:23:16;;;;;;;4.00;3.70;;;2.60;99.90;;;;;;4931494;29;20209;-67
2023/03/12 10:25:50;;;;;;;5.05;4.55;;;2.60;99.90;;;;;;4935566;29;20234;-66
2023/03/12 10:28:22;;;;;;;4.45;4.00;;;2.60;99.90;;;;;;4935466;29;20213;-67
2023/03/12 10:30:54;;;;;;;4.55;4.13;;;2.70;99.90;;;;;;4935626;29;20217;-68
2023/03/12 10:33:28;;;;;;;3.97;3.58;;;2.70;99.90;;;;;;4943683;29;20233;-68
2023/03/12 10:35:56;;;;;;;6.68;4.40;;;2.70;99.90;;;;;;4935481;29;20225;-66
2023/03/12 10:38:29;;;;;;;3.53;3.13;;;2.70;99.90;;;;;;4935487;29;20241;-68
2023/03/12 10:40:58;;;;;;;3.70;3.22;;;2.70;99.90;;;;;;4935459;29;20215;-67
2023/03/12 10:43:26;;;;;;;4.93;3.13;;;2.80;99.90;;;;;;4935611;29;20210;-66
2023/03/12 10:46:04;;;;;;;4.40;3.67;;;2.80;99.90;;;;;;4935248;29;20726;-67
2023/03/12 10:48:32;;;;;;;3.78;3.47;;;2.90;99.90;;;;;;4934209;29;20214;-66
2023/03/12 10:51:03;;;;;;;3.50;3.20;;;3.00;99.90;;;;;;4934946;29;20218;-66
2023/03/12 10:53:33;;;;;;;3.35;3.05;;;3.10;99.90;;;;;;4935169;29;20234;-68
2023/03/12 10:56:08;;;;;;;3.72;3.38;;;3.20;99.90;;;;;;4935975;29;20710;-67
2023/03/12 10:58:39;;;;;;;3.45;3.15;;;3.20;99.90;;;;;;4940838;29;20207;-68
2023/03/12 11:01:19;;;;;;;4.50;3.88;;;3.20;99.90;;;;;;4935202;29;20246;-67
2023/03/12 11:03:47;;;;;;;3.53;3.22;;;3.30;99.90;;;;;;4944749;29;20565;-67
2023/03/12 11:06:21;;;;;;;3.95;2.45;;;3.40;99.90;;;;;;4934804;29;20273;-66
2023/03/12 11:09:05;;;;;;;2.60;2.28;;;3.50;99.90;;;;;;4942802;29;20630;-68
2023/03/12 11:11:50;;;;;;;4.15;3.67;;;3.50;99.90;;;;;;4938120;29;20205;-67
2023/03/12 11:14:20;;;;;;;4.40;3.90;;;3.50;99.90;;;;;;4945757;28;20205;-68
2023/03/12 11:16:48;;;;;;;3.25;2.85;;;3.50;99.90;;;;;;4946478;29;20204;-68
2023/03/12 11:19:28;;;;;;;4.35;3.45;;;3.60;99.90;;;;;;4942587;29;20587;-68
2023/03/12 11:21:59;;;;;;;3.58;3.28;;;3.80;99.90;;;;;;4945856;29;20294;-68
2023/03/12 11:24:27;;;;;;;4.22;3.40;;;3.90;99.90;;;;;;4935539;29;20203;-67
2023/03/12 11:27:03;;;;;;;4.35;3.30;;;3.90;99.90;;;;;;4943005;29;20595;-67
2023/03/12 11:29:38;;;;;;;3.60;2.97;;;4.00;99.90;;;;;;4936091;29;20215;-67
2023/03/12 11:32:15;;;;;;;2.70;2.50;;;4.10;99.90;;;;;;4943742;29;20215;-67
2023/03/12 11:34:46;;;;;;;3.45;3.15;;;4.10;99.90;;;;;;4939441;29;20241;-67
2023/03/12 11:37:17;;;;;;;4.65;3.53;;;4.20;99.90;;;;;;4937009;29;20220;-67
2023/03/12 11:39:58;;;;;;;6.30;2.67;;;4.30;99.90;;;;;;4945589;29;20211;-68
2023/03/12 11:42:40;;;;;;;5.85;3.20;;;4.40;99.90;;;;;;4935188;29;20209;-67
2023/03/12 11:45:22;;;;;;;4.07;3.67;;;4.50;99.90;;;;;;4943276;29;20742;-67
2023/03/12 11:48:03;;;;;;;3.30;2.75;;;4.50;99.90;;;;;;4942122;29;20210;-67
2023/03/12 11:50:44;;;;;;;2.67;2.40;;;4.50;99.90;;;;;;4934003;29;20206;-67
2023/03/12 11:53:30;;;;;;;4.53;3.95;;;4.50;99.90;;;;;;4943921;29;20221;-67
2023/03/12 11:56:12;;;;;;;5.47;4.28;;;4.60;99.90;;;;;;4945536;29;20233;-68
2023/03/12 11:58:55;;;;;;;4.28;3.88;;;4.60;99.90;;;;;;4936067;29;20206;-67
2023/03/12 12:01:31;;;;;;;3.83;3.50;;;4.70;99.90;;;;;;4945262;29;20305;-67
2023/03/12 12:04:10;;;;;;;3.17;2.80;;;4.80;99.90;;;;;;4944766;29;20222;-66
2023/03/12 12:06:54;;;;;;;4.15;3.75;;;4.90;99.90;;;;;;4934188;29;20237;-67
2023/03/12 12:09:31;;;;;;;5.07;3.08;;;5.10;99.90;;;;;;4936916;29;20219;-67
2023/03/12 12:12:20;;;;;;;3.90;3.10;;;5.20;99.90;;;;;;4945244;29;20210;-67
2023/03/12 12:15:23;;;;;;;3.70;3.40;;;5.40;99.90;;;;;;4939955;28;20803;-67
2023/03/12 12:18:02;;;;;;;3.40;3.10;;;5.70;99.90;;;;;;4930791;29;20254;-67
2023/03/12 12:20:40;;;;;;;2.30;2.10;;;6.10;99.90;;;;;;4941339;29;20552;-67
2023/03/12 12:23:16;;;;;;;2.63;2.13;;;6.70;99.90;;;;;;4942633;29;20659;-68
2023/03/12 12:25:58;;;;;;;1.83;1.73;;;7.30;99.90;;;;;;4945046;29;20235;-68
2023/03/12 12:28:43;;;;;;;1.92;1.83;;;7.30;99.90;;;;;;4934146;29;20207;-67
2023/03/12 12:31:29;;;;;;;3.80;2.70;;;7.20;99.90;;;;;;4942825;29;20217;-67
2023/03/12 12:34:29;;;;;;;1.95;1.65;;;6.60;99.90;;;;;;4938668;29;20269;-67
2023/03/12 12:37:10;;;;;;;2.20;2.00;;;6.40;99.90;;;;;;4933716;29;20241;-67
2023/03/12 12:39:42;;;;;;;1.88;1.58;;;6.30;99.90;;;;;;4935321;29;20206;-68
2023/03/12 12:42:17;;;;;;;3.08;2.63;;;6.20;99.90;;;;;;4941605;29;20239;-67
2023/03/12 12:44:50;;;;;;;2.78;2.58;;;6.20;99.90;;;;;;4941245;29;20243;-68
2023/03/12 12:47:29;;;;;;;2.35;2.15;;;6.30;99.90;;;;;;4943576;29;20258;-67
2023/03/12 12:49:58;;;;;;;2.30;2.20;;;6.40;99.90;;;;;;4944494;29;20212;-68
2023/03/12 12:52:28;;;;;;;3.53;2.72;;;6.50;99.90;;;;;;4941302;29;20270;-67
2023/03/12 12:55:02;;;;;;;2.33;2.13;;;6.50;99.90;;;;;;4941356;29;20232;-68
2023/03/12 12:57:37;;;;;;;2.50;2.30;;;6.70;99.90;;;;;;4941513;29;20203;-67
2023/03/12 13:00:20;;;;;;;2.00;1.90;;;6.70;99.90;;;;;;4941236;29;20214;-67
2023/03/12 13:02:51;;;;;;;2.35;2.15;;;6.60;99.90;;;;;;4944611;29;20674;-67
2023/03/12 13:05:22;;;;;;;2.55;2.35;;;6.50;99.90;;;;;;4934254;29;20804;-67
2023/03/12 13:07:49;;;;;;;2.45;2.25;;;6.60;99.90;;;;;;4935102;29;20207;-67
2023/03/12 13:10:40;;;;;;;1.75;1.65;;;6.90;99.90;;;;;;4941642;29;20306;-67
2023/03/12 13:13:25;;;;;;;3.22;2.92;;;6.90;99.90;;;;;;4943806;29;20205;-68
2023/03/12 13:16:18;;;;;;;2.45;2.25;;;6.90;99.90;;;;;;4937437;29;20241;-67